Time;durP1;ratioP1;P1;durP2;ratioP2;P2;SDS_P1;SDS_P2;PMS_P1;PMS_P2;Temp;Humidity;BMP_temperature;BMP_pressure;BME280_temperature;BME280_humidity;BME280_pressure;Samples;Min_cycle;Max_cycle;Signal;HPM_P1;HPM_P2
2023/08/26 00:00:39;;;;;;;11.57;8.13;;;22.00;99.90;;;;;;5027269;28;20232;-73
2023/08/26 00:03:05;;;;;;;8.93;7.97;;;21.90;99.90;;;;;;5027207;28;20872;-73
2023/08/26 00:05:31;;;;;;;8.83;7.93;;;21.90;99.90;;;;;;5026522;28;20477;-73
2023/08/26 00:07:57;;;;;;;8.73;7.57;;;21.90;99.90;;;;;;5024576;28;20833;-73
2023/08/26 00:10:23;;;;;;;9.40;7.73;;;21.80;99.90;;;;;;5023869;28;20845;-73
2023/08/26 00:12:48;;;;;;;8.13;7.33;;;21.70;99.90;;;;;;5030643;28;20219;-73
2023/08/26 00:15:14;;;;;;;9.33;8.20;;;21.80;99.90;;;;;;5029966;28;20727;-73
2023/08/26 00:17:40;;;;;;;10.43;7.53;;;21.70;99.90;;;;;;5030554;28;20273;-73
2023/08/26 00:20:08;;;;;;;17.93;8.20;;;21.80;99.90;;;;;;5028921;28;20246;-73
2023/08/26 00:22:34;;;;;;;8.80;7.03;;;21.90;99.90;;;;;;5028943;28;20266;-73
2023/08/26 00:25:00;;;;;;;10.00;7.97;;;22.00;99.90;;;;;;5029498;28;20501;-73
2023/08/26 00:27:26;;;;;;;8.10;7.30;;;22.00;99.90;;;;;;5042488;28;20476;-72
2023/08/26 00:29:51;;;;;;;11.90;7.73;;;21.90;99.90;;;;;;5028276;28;20215;-73
2023/08/26 00:32:17;;;;;;;11.43;7.70;;;21.90;99.90;;;;;;5028528;28;20349;-74
2023/08/26 00:34:43;;;;;;;8.63;7.67;;;21.70;99.90;;;;;;5011909;28;20831;-73
2023/08/26 00:37:09;;;;;;;8.93;7.90;;;21.60;99.90;;;;;;5028341;28;20223;-73
2023/08/26 00:39:35;;;;;;;10.47;8.60;;;21.60;99.90;;;;;;5009985;28;20473;-73
2023/08/26 00:42:02;;;;;;;9.77;7.77;;;21.50;99.90;;;;;;5030198;28;20543;-73
2023/08/26 00:44:28;;;;;;;9.13;7.00;;;21.50;99.90;;;;;;5057328;28;20238;-73
2023/08/26 00:46:55;;;;;;;8.93;6.90;;;21.50;99.90;;;;;;5028351;28;20470;-73
2023/08/26 00:49:22;;;;;;;9.00;7.10;;;21.50;99.90;;;;;;5027096;28;20216;-74
2023/08/26 00:51:47;;;;;;;13.00;8.90;;;21.40;99.90;;;;;;5028851;28;20948;-73
2023/08/26 00:54:13;;;;;;;14.80;8.07;;;21.40;99.90;;;;;;5028468;28;20499;-71
2023/08/26 00:56:39;;;;;;;9.60;7.80;;;21.40;99.90;;;;;;5036022;28;20224;-73
2023/08/26 00:59:04;;;;;;;9.23;7.63;;;21.50;99.90;;;;;;5029509;28;20250;-73
2023/08/26 01:01:32;;;;;;;11.70;8.17;;;21.40;99.90;;;;;;5023701;28;20302;-73
2023/08/26 01:03:58;;;;;;;7.20;6.50;;;21.30;99.90;;;;;;5043622;28;20231;-74
2023/08/26 01:06:23;;;;;;;10.50;8.50;;;21.30;99.90;;;;;;5037825;28;20469;-73
2023/08/26 01:08:50;;;;;;;9.93;7.80;;;21.30;99.90;;;;;;5035064;28;20227;-74
2023/08/26 01:11:48;;;;;;;9.00;8.10;;;21.40;99.90;;;;;;5037937;28;20277;-73
2023/08/26 01:14:16;;;;;;;9.03;8.13;;;21.40;99.90;;;;;;5025351;28;20462;-73
2023/08/26 01:16:42;;;;;;;10.70;7.93;;;21.40;99.90;;;;;;5012090;28;20486;-72
2023/08/26 01:19:40;;;;;;;8.40;7.40;;;21.30;99.90;;;;;;5044511;28;20480;-72
2023/08/26 01:22:08;;;;;;;9.47;8.00;;;21.20;99.90;;;;;;5028615;28;20219;-73
2023/08/26 01:24:35;;;;;;;9.07;6.70;;;21.10;99.90;;;;;;5028793;28;20469;-73
2023/08/26 01:27:01;;;;;;;12.07;7.60;;;21.10;99.90;;;;;;5030277;28;20581;-72
2023/08/26 01:29:28;;;;;;;7.90;7.10;;;21.10;99.90;;;;;;5042057;28;20934;-72
2023/08/26 01:32:23;;;;;;;7.57;6.87;;;21.10;99.90;;;;;;5032487;28;20461;-73
2023/08/26 01:34:54;;;;;;;8.33;7.47;;;21.10;99.90;;;;;;5027180;28;20353;-73
2023/08/26 01:37:22;;;;;;;9.00;7.30;;;21.00;99.90;;;;;;5042135;28;20645;-73
2023/08/26 01:39:48;;;;;;;9.37;7.57;;;21.00;99.90;;;;;;5027101;28;20584;-73
2023/08/26 01:42:17;;;;;;;17.30;9.27;;;20.90;99.90;;;;;;5031613;28;21067;-73
2023/08/26 01:44:43;;;;;;;10.07;7.10;;;20.90;99.90;;;;;;5054289;28;20574;-73
2023/08/26 01:47:09;;;;;;;8.63;7.47;;;20.90;99.90;;;;;;5043678;28;20477;-73
2023/08/26 01:49:35;;;;;;;8.57;7.77;;;20.90;99.90;;;;;;5042573;28;20554;-73
2023/08/26 01:52:01;;;;;;;10.23;7.60;;;21.00;99.90;;;;;;5029381;28;20466;-73
2023/08/26 01:54:26;;;;;;;10.97;8.20;;;20.90;99.90;;;;;;5040613;28;20231;-73
2023/08/26 01:56:52;;;;;;;9.70;7.13;;;20.90;99.90;;;;;;5015678;28;20250;-73
2023/08/26 01:59:18;;;;;;;8.03;7.27;;;20.90;99.90;;;;;;5050227;28;20462;-73
2023/08/26 02:01:44;;;;;;;10.50;7.37;;;20.90;99.90;;;;;;5045132;28;20222;-73
2023/08/26 02:04:09;;;;;;;9.07;8.17;;;20.80;99.90;;;;;;5030360;28;20223;-73
2023/08/26 02:06:40;;;;;;;17.90;7.20;;;20.90;99.90;;;;;;5016462;28;20294;-73
2023/08/26 02:09:06;;;;;;;8.00;6.50;;;20.80;99.90;;;;;;5035426;28;20543;-73
2023/08/26 02:11:32;;;;;;;13.80;7.23;;;20.80;99.90;;;;;;5033467;28;20457;-73
2023/08/26 02:13:58;;;;;;;8.37;6.60;;;20.80;99.90;;;;;;5016380;28;20469;-73
2023/08/26 02:16:24;;;;;;;7.80;6.90;;;20.70;99.90;;;;;;5045633;28;20627;-73
2023/08/26 02:18:49;;;;;;;9.73;8.80;;;20.70;99.90;;;;;;5064341;28;20338;-72
2023/08/26 02:21:15;;;;;;;13.90;6.13;;;20.70;99.90;;;;;;5032050;28;20330;-73
2023/08/26 02:23:41;;;;;;;6.87;6.13;;;20.70;99.90;;;;;;5034134;28;20223;-73
2023/08/26 02:26:08;;;;;;;8.37;6.53;;;20.60;99.90;;;;;;5034722;28;20467;-73
2023/08/26 02:28:34;;;;;;;6.70;5.77;;;20.50;99.90;;;;;;5033470;28;20454;-72
2023/08/26 02:31:02;;;;;;;8.40;5.53;;;20.40;99.90;;;;;;5030720;28;20892;-73
2023/08/26 02:33:27;;;;;;;8.33;5.50;;;20.40;99.90;;;;;;5033120;28;20456;-72
2023/08/26 02:35:53;;;;;;;9.13;6.33;;;20.30;99.90;;;;;;5032279;28;20466;-72
2023/08/26 02:38:20;;;;;;;7.40;5.10;;;20.40;99.90;;;;;;5033280;28;20341;-73
2023/08/26 02:40:53;;;;;;;7.50;5.57;;;20.40;99.90;;;;;;5034198;28;20469;-73
2023/08/26 02:43:19;;;;;;;6.10;5.50;;;20.40;99.90;;;;;;5045785;28;20231;-72
2023/08/26 02:45:45;;;;;;;6.50;5.37;;;20.40;99.90;;;;;;5031910;28;20473;-72
2023/08/26 02:48:11;;;;;;;8.40;5.20;;;20.50;99.90;;;;;;5033061;28;20474;-72
2023/08/26 02:50:38;;;;;;;6.23;5.13;;;20.40;99.90;;;;;;5062389;27;20239;-72
2023/08/26 02:53:04;;;;;;;5.40;4.90;;;20.30;99.90;;;;;;5047361;28;20466;-73
2023/08/26 02:55:29;;;;;;;6.70;4.47;;;20.30;99.90;;;;;;5044647;28;20278;-73
2023/08/26 02:57:55;;;;;;;6.73;5.40;;;20.30;99.90;;;;;;5016616;28;20238;-73
2023/08/26 03:00:21;;;;;;;8.53;4.93;;;20.20;99.90;;;;;;5053877;28;20220;-72
2023/08/26 03:02:46;;;;;;;10.30;4.93;;;20.20;99.90;;;;;;5025519;28;20224;-72
2023/08/26 03:05:12;;;;;;;6.23;5.27;;;20.20;99.90;;;;;;5005171;28;20301;-73
2023/08/26 03:07:38;;;;;;;5.20;4.70;;;20.20;99.90;;;;;;5040534;28;20232;-75
2023/08/26 03:10:04;;;;;;;4.93;4.30;;;20.20;99.90;;;;;;5039397;28;20297;-72
2023/08/26 03:12:29;;;;;;;6.87;4.10;;;20.10;99.90;;;;;;5022272;28;20721;-72
2023/08/26 03:14:55;;;;;;;5.50;4.30;;;20.10;99.90;;;;;;5038470;28;20236;-72
2023/08/26 03:17:21;;;;;;;5.27;4.73;;;20.00;99.90;;;;;;5021794;28;20238;-72
2023/08/26 03:19:46;;;;;;;4.97;4.47;;;20.00;99.90;;;;;;5006180;28;20247;-73
2023/08/26 03:22:12;;;;;;;4.33;3.73;;;19.90;99.90;;;;;;5004511;28;20226;-73
2023/08/26 03:24:39;;;;;;;5.57;3.87;;;19.80;99.90;;;;;;5024669;28;20292;-73
2023/08/26 03:27:05;;;;;;;6.40;4.50;;;19.70;99.90;;;;;;5024674;28;20474;-72
2023/08/26 03:29:30;;;;;;;3.77;3.43;;;19.60;99.90;;;;;;5019453;28;20232;-72
2023/08/26 03:31:57;;;;;;;5.83;4.70;;;19.60;99.90;;;;;;5026270;28;20216;-72
2023/08/26 03:34:23;;;;;;;4.50;4.00;;;19.70;99.90;;;;;;5018061;28;20557;-73
2023/08/26 03:36:49;;;;;;;4.73;4.23;;;19.60;99.90;;;;;;5025449;28;20474;-72
2023/08/26 03:39:15;;;;;;;4.57;4.17;;;19.70;99.90;;;;;;5038232;28;20220;-73
2023/08/26 03:41:40;;;;;;;6.20;4.00;;;19.70;99.90;;;;;;5038886;28;20836;-73
2023/08/26 03:44:06;;;;;;;8.10;4.17;;;19.70;99.90;;;;;;5023613;28;20222;-72
2023/08/26 03:46:32;;;;;;;4.20;3.80;;;19.80;99.90;;;;;;5007249;28;20220;-73
2023/08/26 03:48:57;;;;;;;5.63;3.87;;;19.50;99.90;;;;;;5024730;28;20235;-72
2023/08/26 03:51:23;;;;;;;4.93;4.30;;;19.50;99.90;;;;;;5020897;28;20413;-72
2023/08/26 03:53:49;;;;;;;5.63;3.13;;;19.30;99.90;;;;;;5039260;28;20347;-72
2023/08/26 03:56:14;;;;;;;5.10;3.73;;;19.30;99.90;;;;;;5022671;28;20230;-72
2023/08/26 03:58:40;;;;;;;4.50;4.10;;;19.40;99.90;;;;;;5023379;28;20235;-72
2023/08/26 04:01:07;;;;;;;4.90;3.70;;;19.40;99.90;;;;;;5018403;28;20223;-72
2023/08/26 04:03:33;;;;;;;6.70;3.63;;;19.50;99.90;;;;;;5025265;28;20510;-72
2023/08/26 04:06:04;;;;;;;4.10;3.07;;;19.40;99.90;;;;;;5026372;28;20466;-73
2023/08/26 04:08:31;;;;;;;4.20;3.40;;;19.30;99.90;;;;;;5034567;28;20240;-72
2023/08/26 04:10:58;;;;;;;5.60;4.00;;;19.30;99.90;;;;;;5025957;28;20466;-72
2023/08/26 04:13:27;;;;;;;3.83;3.53;;;19.20;99.90;;;;;;5013980;28;20593;-73
2023/08/26 04:15:57;;;;;;;4.87;3.67;;;19.20;99.90;;;;;;5025730;28;20482;-72
2023/08/26 04:18:23;;;;;;;11.63;4.43;;;19.10;99.90;;;;;;5047225;28;20482;-72
2023/08/26 04:20:49;;;;;;;4.17;3.70;;;19.10;99.90;;;;;;5048335;28;20502;-72
2023/08/26 04:23:15;;;;;;;4.60;3.93;;;19.10;99.90;;;;;;5030379;28;20501;-72
2023/08/26 04:25:42;;;;;;;4.13;3.83;;;18.90;99.90;;;;;;5013819;28;20462;-72
2023/08/26 04:28:08;;;;;;;3.33;3.03;;;18.90;99.90;;;;;;5045949;28;20223;-72
2023/08/26 04:30:34;;;;;;;3.30;3.10;;;19.10;99.90;;;;;;5031194;28;20502;-73
2023/08/26 04:33:00;;;;;;;3.50;3.10;;;19.20;99.90;;;;;;5032785;28;20250;-72
2023/08/26 04:35:27;;;;;;;4.17;3.40;;;19.30;99.90;;;;;;5014623;28;21039;-73
2023/08/26 04:37:52;;;;;;;5.53;3.47;;;19.20;99.90;;;;;;5021085;28;20477;-72
2023/08/26 04:40:18;;;;;;;7.90;3.47;;;19.20;99.90;;;;;;5030795;28;20585;-72
2023/08/26 04:42:45;;;;;;;4.27;3.17;;;19.00;99.90;;;;;;5031642;28;20224;-72
2023/08/26 04:45:15;;;;;;;3.30;2.93;;;18.60;99.90;;;;;;5029499;28;20481;-73
2023/08/26 04:47:44;;;;;;;3.53;2.20;;;18.50;99.90;;;;;;5030243;28;20574;-72
2023/08/26 04:50:11;;;;;;;4.60;2.20;;;18.40;99.90;;;;;;5046331;28;20497;-72
2023/08/26 04:52:39;;;;;;;2.20;2.10;;;18.40;99.90;;;;;;5045484;28;20944;-72
2023/08/26 04:55:07;;;;;;;2.70;2.10;;;18.30;99.90;;;;;;5062769;28;20558;-72
2023/08/26 04:57:32;;;;;;;2.30;2.10;;;18.30;99.90;;;;;;5029201;28;20462;-72
2023/08/26 04:59:58;;;;;;;4.30;2.53;;;18.20;99.90;;;;;;5014890;28;21089;-72
2023/08/26 05:02:24;;;;;;;3.70;2.20;;;18.20;99.90;;;;;;5043152;28;20215;-72
2023/08/26 05:04:50;;;;;;;2.27;2.07;;;18.50;99.90;;;;;;5028979;28;20227;-73
2023/08/26 05:07:16;;;;;;;1.90;1.80;;;18.50;99.90;;;;;;5030738;28;20243;-72
2023/08/26 05:09:42;;;;;;;2.47;2.20;;;18.60;99.90;;;;;;5012559;28;20458;-72
2023/08/26 05:12:08;;;;;;;1.77;1.60;;;18.70;99.90;;;;;;5043626;28;20470;-72
2023/08/26 05:14:36;;;;;;;2.83;2.27;;;18.70;99.90;;;;;;5012914;28;20478;-72
2023/08/26 05:17:01;;;;;;;1.97;1.73;;;18.80;99.90;;;;;;5032626;28;20559;-73
2023/08/26 05:19:27;;;;;;;1.90;1.80;;;18.90;99.90;;;;;;5046623;28;20312;-72
2023/08/26 05:21:53;;;;;;;2.70;1.90;;;18.80;99.90;;;;;;5029656;28;20311;-72
2023/08/26 05:24:18;;;;;;;2.20;2.00;;;18.80;99.90;;;;;;5028614;28;20211;-72
2023/08/26 05:26:45;;;;;;;2.30;1.80;;;18.70;99.90;;;;;;5028426;28;20849;-72
2023/08/26 05:29:11;;;;;;;2.60;2.00;;;18.50;99.90;;;;;;5027257;28;20469;-72
2023/08/26 05:31:37;;;;;;;1.80;1.70;;;18.50;99.90;;;;;;5011905;28;20312;-72
2023/08/26 05:34:03;;;;;;;3.27;2.00;;;18.50;99.90;;;;;;5044471;28;20216;-72
2023/08/26 05:36:29;;;;;;;3.20;1.90;;;18.50;99.90;;;;;;5030508;28;20224;-73
2023/08/26 05:38:54;;;;;;;1.87;1.77;;;18.50;99.90;;;;;;5031612;28;20227;-72
2023/08/26 05:41:20;;;;;;;2.17;1.53;;;18.50;99.90;;;;;;5029023;28;20258;-72
2023/08/26 05:43:47;;;;;;;2.77;2.10;;;18.60;99.90;;;;;;5029269;28;20223;-72
2023/08/26 05:46:14;;;;;;;5.13;2.00;;;18.60;99.90;;;;;;5028837;28;20581;-72
2023/08/26 05:48:39;;;;;;;1.90;1.77;;;18.60;99.90;;;;;;5029582;28;20470;-73
2023/08/26 05:51:07;;;;;;;5.07;1.63;;;18.60;99.90;;;;;;5047398;28;20215;-72
2023/08/26 05:53:32;;;;;;;1.90;1.77;;;18.60;99.90;;;;;;5028822;28;20934;-72
2023/08/26 05:55:58;;;;;;;1.60;1.50;;;18.50;99.90;;;;;;5029837;28;20250;-72
2023/08/26 05:58:24;;;;;;;2.30;1.73;;;18.50;99.90;;;;;;5014534;28;20946;-72
2023/08/26 06:00:50;;;;;;;2.80;2.00;;;18.60;99.90;;;;;;5028749;28;20234;-72
2023/08/26 06:03:16;;;;;;;3.50;1.83;;;18.60;99.90;;;;;;5033169;28;20228;-72
2023/08/26 06:05:42;;;;;;;3.17;1.90;;;18.60;99.90;;;;;;5042875;28;20458;-72
2023/08/26 06:08:07;;;;;;;1.97;1.87;;;18.60;99.90;;;;;;5042823;28;20334;-73
2023/08/26 06:10:34;;;;;;;3.87;2.30;;;18.50;99.90;;;;;;5044396;28;20890;-72
2023/08/26 06:13:01;;;;;;;3.10;2.20;;;18.40;99.90;;;;;;5030684;28;21019;-73
2023/08/26 06:15:27;;;;;;;2.03;1.90;;;18.50;99.90;;;;;;5012596;28;20476;-72
2023/08/26 06:17:53;;;;;;;1.70;1.60;;;18.30;99.90;;;;;;5019976;28;20273;-72
2023/08/26 06:20:23;;;;;;;2.57;1.73;;;18.10;99.90;;;;;;5013228;28;20247;-72
2023/08/26 06:22:48;;;;;;;4.27;1.77;;;18.10;99.90;;;;;;5028860;28;20502;-72
2023/08/26 06:25:14;;;;;;;2.20;2.00;;;17.80;99.90;;;;;;5026895;28;20309;-72
2023/08/26 06:27:41;;;;;;;2.10;1.63;;;17.80;99.90;;;;;;5030529;28;20698;-73
2023/08/26 06:30:08;;;;;;;2.33;2.00;;;17.90;99.90;;;;;;5043960;28;20326;-72
2023/08/26 06:32:34;;;;;;;1.90;1.80;;;18.00;99.90;;;;;;5028810;28;20947;-72
2023/08/26 06:35:01;;;;;;;1.93;1.80;;;18.20;99.90;;;;;;5060462;28;20492;-72
2023/08/26 06:37:27;;;;;;;6.20;1.80;;;18.20;99.90;;;;;;5044578;28;20486;-72
2023/08/26 06:39:52;;;;;;;3.13;1.60;;;18.20;99.90;;;;;;5029306;28;20218;-72
2023/08/26 06:42:18;;;;;;;1.63;1.53;;;18.10;99.90;;;;;;5015004;28;20220;-71
2023/08/26 06:44:54;;;;;;;1.80;1.70;;;18.20;99.90;;;;;;5048227;28;20306;-72
2023/08/26 06:47:20;;;;;;;4.00;1.87;;;18.40;99.90;;;;;;5029939;28;20470;-72
2023/08/26 06:49:45;;;;;;;1.97;1.40;;;18.30;99.90;;;;;;5032117;28;20462;-72
2023/08/26 06:52:11;;;;;;;2.30;1.50;;;18.20;99.90;;;;;;5023144;28;20219;-72
2023/08/26 06:54:38;;;;;;;1.93;1.70;;;18.40;99.90;;;;;;5013856;28;20227;-72
2023/08/26 06:57:04;;;;;;;3.13;1.70;;;18.30;99.90;;;;;;5022555;28;20454;-72
2023/08/26 06:59:29;;;;;;;2.20;1.73;;;18.30;99.90;;;;;;5062642;28;20228;-72
2023/08/26 07:01:55;;;;;;;3.50;2.27;;;18.50;99.90;;;;;;5049601;28;20239;-72
2023/08/26 07:04:20;;;;;;;2.17;1.90;;;18.60;99.90;;;;;;5034223;28;20215;-72
2023/08/26 07:06:46;;;;;;;3.80;1.77;;;18.70;99.90;;;;;;5031381;28;20219;-72
2023/08/26 07:09:12;;;;;;;2.63;2.40;;;18.80;99.90;;;;;;5014975;28;20224;-72
2023/08/26 07:11:37;;;;;;;2.17;2.00;;;18.70;99.90;;;;;;5030810;28;20225;-72
2023/08/26 07:14:03;;;;;;;4.33;2.20;;;18.70;99.90;;;;;;5033184;28;20270;-72
2023/08/26 07:16:29;;;;;;;4.73;4.23;;;18.80;99.90;;;;;;5045837;28;20611;-72
2023/08/26 07:18:55;;;;;;;3.77;3.47;;;18.80;99.90;;;;;;5058199;28;20344;-72
2023/08/26 07:21:21;;;;;;;3.37;2.63;;;19.00;99.90;;;;;;5062164;28;20219;-72
2023/08/26 07:23:47;;;;;;;3.77;2.20;;;19.00;99.90;;;;;;5061078;28;21131;-72
2023/08/26 07:26:12;;;;;;;3.37;2.13;;;19.10;99.90;;;;;;5015692;28;20482;-72
2023/08/26 07:28:38;;;;;;;2.10;1.40;;;19.00;99.90;;;;;;5032776;28;20239;-72
2023/08/26 07:31:05;;;;;;;1.93;1.53;;;18.90;99.90;;;;;;5033996;28;20223;-72
2023/08/26 07:33:32;;;;;;;1.67;1.57;;;18.90;99.90;;;;;;5047520;28;20227;-72
2023/08/26 07:36:09;;;;;;;2.03;1.83;;;18.90;99.90;;;;;;5031620;28;20531;-72
2023/08/26 07:38:35;;;;;;;2.30;1.77;;;18.90;99.90;;;;;;5032859;28;20562;-72
2023/08/26 07:41:00;;;;;;;1.30;1.20;;;18.90;99.90;;;;;;5049201;28;20565;-71
2023/08/26 07:43:26;;;;;;;1.67;1.57;;;19.00;99.90;;;;;;5031059;28;20316;-72
2023/08/26 07:45:52;;;;;;;1.77;1.50;;;19.00;99.90;;;;;;5028375;28;20220;-72
2023/08/26 07:48:17;;;;;;;4.63;1.47;;;19.10;99.90;;;;;;5060863;28;20223;-72
2023/08/26 07:50:43;;;;;;;4.03;1.80;;;19.10;99.90;;;;;;5058712;28;20243;-72
2023/08/26 07:53:09;;;;;;;1.73;1.63;;;19.10;99.90;;;;;;5043259;28;20243;-72
2023/08/26 07:55:35;;;;;;;4.27;1.60;;;19.20;99.90;;;;;;5012872;28;20238;-72
2023/08/26 07:58:01;;;;;;;2.10;1.80;;;19.30;99.90;;;;;;5030724;28;20478;-72
2023/08/26 08:00:27;;;;;;;5.03;2.10;;;19.30;99.90;;;;;;5029316;28;20593;-72
2023/08/26 08:02:55;;;;;;;3.20;1.63;;;19.30;99.90;;;;;;5026857;28;20259;-74
2023/08/26 08:05:21;;;;;;;2.37;1.50;;;19.30;99.90;;;;;;5010045;28;20220;-72
2023/08/26 08:07:47;;;;;;;4.50;2.30;;;19.40;99.90;;;;;;5026355;28;20585;-72
2023/08/26 08:10:12;;;;;;;2.00;1.87;;;19.50;99.90;;;;;;5025679;28;20478;-72
2023/08/26 08:12:38;;;;;;;1.50;1.33;;;19.70;99.90;;;;;;5027395;28;20254;-73
2023/08/26 08:15:05;;;;;;;1.80;1.70;;;19.80;99.90;;;;;;5039980;28;20558;-73
2023/08/26 08:17:31;;;;;;;2.50;1.77;;;19.80;99.90;;;;;;5026111;28;20251;-73
2023/08/26 08:19:57;;;;;;;1.73;1.63;;;19.80;99.90;;;;;;5025978;28;20497;-72
2023/08/26 08:22:41;;;;;;;2.00;1.63;;;19.80;99.90;;;;;;5058344;28;20489;-74
2023/08/26 08:25:07;;;;;;;1.90;1.80;;;20.00;99.90;;;;;;5023698;28;20234;-73
2023/08/26 08:27:33;;;;;;;1.23;1.13;;;20.00;99.90;;;;;;5021178;28;20513;-72
2023/08/26 08:29:59;;;;;;;2.30;1.80;;;20.20;99.90;;;;;;5023881;28;20470;-72
2023/08/26 08:32:26;;;;;;;1.77;1.40;;;20.10;99.90;;;;;;5021542;28;20485;-71
2023/08/26 08:34:52;;;;;;;2.37;1.60;;;20.20;99.90;;;;;;5023043;28;20300;-72
2023/08/26 08:37:18;;;;;;;1.63;1.53;;;20.30;99.90;;;;;;5023741;28;21062;-72
2023/08/26 08:39:44;;;;;;;1.73;1.53;;;20.30;99.90;;;;;;5049730;28;20470;-72
2023/08/26 08:42:14;;;;;;;1.30;1.13;;;20.40;99.90;;;;;;5005110;28;20470;-72
2023/08/26 08:44:46;;;;;;;1.70;1.60;;;20.40;99.90;;;;;;5053175;28;21225;-72
2023/08/26 08:47:13;;;;;;;1.43;1.33;;;20.50;99.90;;;;;;5020730;28;20470;-72
2023/08/26 08:49:41;;;;;;;1.80;1.60;;;20.60;99.90;;;;;;5021045;28;20536;-73
2023/08/26 08:52:07;;;;;;;1.70;1.40;;;20.60;99.90;;;;;;5040316;28;20463;-72
2023/08/26 08:54:34;;;;;;;1.60;1.50;;;20.70;99.90;;;;;;5007571;28;20588;-72
2023/08/26 08:57:03;;;;;;;1.63;1.50;;;20.60;99.90;;;;;;5024811;28;20470;-72
2023/08/26 08:59:32;;;;;;;2.10;1.50;;;20.70;99.90;;;;;;5054025;28;20504;-72
2023/08/26 09:01:59;;;;;;;2.33;1.40;;;20.90;99.90;;;;;;5037727;28;20592;-72
2023/08/26 09:04:25;;;;;;;1.50;1.23;;;21.00;99.90;;;;;;5055901;28;20467;-71
2023/08/26 09:06:51;;;;;;;1.47;1.37;;;21.10;99.90;;;;;;5008365;28;20520;-72
2023/08/26 09:09:18;;;;;;;3.37;1.23;;;21.20;99.90;;;;;;5022372;28;20874;-72
2023/08/26 09:11:44;;;;;;;1.40;1.30;;;21.30;99.90;;;;;;5023778;28;20563;-72
2023/08/26 09:14:10;;;;;;;1.40;1.30;;;21.40;99.90;;;;;;5008106;28;20485;-73
2023/08/26 09:16:41;;;;;;;2.97;1.83;;;21.30;99.90;;;;;;5037243;28;20469;-72
2023/08/26 09:19:13;;;;;;;2.60;1.53;;;21.40;99.90;;;;;;5037972;28;20314;-72
2023/08/26 09:21:44;;;;;;;1.47;1.37;;;21.40;99.90;;;;;;5023567;28;20600;-72
2023/08/26 09:24:13;;;;;;;2.83;1.33;;;21.50;99.90;;;;;;5024929;28;21035;-73
2023/08/26 09:26:39;;;;;;;1.47;1.37;;;21.40;99.90;;;;;;5024146;28;20477;-73
2023/08/26 09:29:16;;;;;;;1.10;1.10;;;21.40;99.90;;;;;;5009418;28;20551;-73
2023/08/26 09:31:49;;;;;;;2.97;1.40;;;21.40;99.90;;;;;;5022592;28;21349;-72
2023/08/26 09:34:32;;;;;;;2.30;1.40;;;21.40;99.90;;;;;;5023874;28;20484;-72
2023/08/26 09:36:59;;;;;;;2.00;1.80;;;21.40;99.90;;;;;;5025580;28;20540;-72
2023/08/26 09:39:25;;;;;;;1.80;1.53;;;21.40;99.90;;;;;;5025698;28;20482;-72
2023/08/26 09:41:54;;;;;;;1.50;1.33;;;21.50;99.90;;;;;;5056793;28;20477;-72
2023/08/26 09:44:23;;;;;;;1.87;1.10;;;21.50;99.90;;;;;;5057887;28;20477;-72
2023/08/26 09:46:49;;;;;;;1.57;1.27;;;21.50;99.90;;;;;;5038507;28;20478;-72
2023/08/26 09:49:17;;;;;;;1.43;1.33;;;21.60;99.90;;;;;;5026911;28;20517;-73
2023/08/26 09:51:51;;;;;;;2.90;1.43;;;21.60;99.90;;;;;;5026746;28;20250;-73
2023/08/26 09:54:24;;;;;;;3.83;1.33;;;21.70;99.90;;;;;;5036950;28;20470;-72
2023/08/26 09:56:50;;;;;;;1.50;1.20;;;21.80;99.90;;;;;;5029133;28;21129;-72
2023/08/26 09:59:16;;;;;;;2.00;1.40;;;21.80;99.90;;;;;;5045137;28;20470;-72
2023/08/26 10:01:45;;;;;;;1.30;1.20;;;21.90;99.90;;;;;;5040344;28;20234;-72
2023/08/26 10:04:25;;;;;;;2.80;0.93;;;22.00;99.90;;;;;;5026331;28;20247;-73
2023/08/26 10:06:54;;;;;;;1.40;1.30;;;22.00;99.90;;;;;;5021888;28;20741;-73
2023/08/26 10:09:34;;;;;;;1.10;1.00;;;22.20;99.90;;;;;;5039556;28;20851;-73
2023/08/26 10:12:05;;;;;;;1.03;1.03;;;22.20;99.90;;;;;;5027961;28;21086;-73
2023/08/26 10:14:33;;;;;;;1.73;1.17;;;22.40;99.90;;;;;;5040666;28;20496;-72
2023/08/26 10:17:02;;;;;;;4.00;1.43;;;22.50;99.90;;;;;;5056671;28;20896;-73
2023/08/26 10:19:29;;;;;;;1.40;1.30;;;22.30;99.90;;;;;;5030006;28;20473;-73
2023/08/26 10:21:56;;;;;;;1.30;1.27;;;22.30;99.90;;;;;;5042705;28;20497;-72
2023/08/26 10:24:22;;;;;;;7.90;1.40;;;22.20;99.90;;;;;;5043712;28;20477;-73
2023/08/26 10:26:48;;;;;;;1.67;1.40;;;22.30;99.90;;;;;;5030654;28;20469;-73
2023/08/26 10:29:14;;;;;;;2.70;1.60;;;22.40;99.90;;;;;;5032407;28;20305;-72
2023/08/26 10:31:43;;;;;;;1.60;1.50;;;22.50;99.90;;;;;;5042607;28;20247;-73
2023/08/26 10:34:09;;;;;;;1.80;1.70;;;22.60;99.90;;;;;;5030779;28;20469;-73
2023/08/26 10:36:36;;;;;;;3.67;1.20;;;22.70;99.90;;;;;;5028982;28;21109;-74
2023/08/26 10:39:02;;;;;;;1.47;1.17;;;22.70;99.90;;;;;;5041110;28;20582;-73
2023/08/26 10:41:29;;;;;;;1.20;1.20;;;22.80;99.90;;;;;;5029621;28;21100;-73
2023/08/26 10:43:58;;;;;;;2.03;1.80;;;22.90;99.90;;;;;;5025584;28;20469;-73
2023/08/26 10:46:30;;;;;;;1.53;1.43;;;22.90;99.90;;;;;;5025460;28;20542;-73
2023/08/26 10:48:56;;;;;;;1.53;1.43;;;22.80;99.90;;;;;;5030408;28;20952;-73
2023/08/26 10:51:23;;;;;;;3.53;1.50;;;22.70;99.90;;;;;;5008775;28;20504;-72
2023/08/26 10:53:48;;;;;;;1.23;1.10;;;22.70;99.90;;;;;;5027280;28;20223;-72
2023/08/26 10:56:20;;;;;;;2.20;1.30;;;22.70;99.90;;;;;;5056699;28;20480;-73
2023/08/26 10:58:48;;;;;;;1.70;1.60;;;22.80;99.90;;;;;;5024377;28;20338;-73
2023/08/26 11:01:15;;;;;;;3.50;1.70;;;22.90;99.90;;;;;;5023853;28;21117;-73
2023/08/26 11:03:44;;;;;;;2.50;1.40;;;23.00;99.90;;;;;;5029150;28;20485;-74
2023/08/26 11:06:13;;;;;;;2.20;1.20;;;23.00;99.90;;;;;;5025555;28;20473;-73
2023/08/26 11:08:38;;;;;;;1.70;1.47;;;23.00;99.90;;;;;;5028174;28;20473;-74
2023/08/26 11:11:10;;;;;;;1.07;1.07;;;23.00;99.90;;;;;;5059073;28;20572;-73
2023/08/26 11:13:35;;;;;;;1.30;1.20;;;23.10;99.90;;;;;;5029514;28;20239;-73
2023/08/26 11:16:01;;;;;;;1.90;1.60;;;23.10;99.90;;;;;;5010500;28;20480;-73
2023/08/26 11:18:27;;;;;;;1.40;1.30;;;23.20;99.90;;;;;;5030078;28;20343;-73
2023/08/26 11:20:53;;;;;;;1.30;1.20;;;23.20;99.90;;;;;;5027870;28;20296;-73
2023/08/26 11:23:24;;;;;;;1.73;1.07;;;23.30;99.90;;;;;;5059478;28;20258;-73
2023/08/26 11:25:49;;;;;;;1.00;1.00;;;23.30;99.90;;;;;;5041562;28;20222;-73
2023/08/26 11:28:15;;;;;;;1.20;1.10;;;23.40;99.90;;;;;;5023587;28;20493;-73
2023/08/26 11:30:45;;;;;;;1.43;1.20;;;23.40;99.90;;;;;;5058644;27;20223;-73
2023/08/26 11:33:15;;;;;;;1.23;1.10;;;23.60;99.90;;;;;;5028920;28;20227;-73
2023/08/26 11:35:45;;;;;;;1.20;1.10;;;23.70;99.90;;;;;;5030082;28;20469;-73
2023/08/26 11:38:12;;;;;;;1.47;1.37;;;23.90;99.90;;;;;;5024085;28;20908;-73
2023/08/26 11:40:38;;;;;;;1.30;1.20;;;23.80;99.90;;;;;;5013002;28;20457;-73
2023/08/26 11:43:08;;;;;;;8.50;1.67;;;23.80;99.90;;;;;;5043705;28;20598;-73
2023/08/26 11:45:38;;;;;;;2.30;1.40;;;23.90;99.90;;;;;;5028888;28;20559;-74
2023/08/26 11:48:04;;;;;;;1.47;1.37;;;23.90;99.90;;;;;;5029318;28;21778;-73
2023/08/26 11:50:33;;;;;;;1.47;1.23;;;24.00;99.90;;;;;;5040868;28;20661;-73
2023/08/26 11:53:04;;;;;;;2.00;1.80;;;24.10;99.90;;;;;;5027830;28;20473;-74
2023/08/26 11:55:34;;;;;;;1.50;1.40;;;24.30;99.90;;;;;;5045371;28;20469;-73
2023/08/26 11:58:01;;;;;;;1.40;1.30;;;24.30;99.90;;;;;;5028435;28;20488;-72
2023/08/26 12:00:27;;;;;;;1.80;1.30;;;24.40;99.90;;;;;;5026843;28;20493;-73
2023/08/26 12:02:59;;;;;;;1.47;1.37;;;24.40;99.90;;;;;;5027731;28;20485;-73
2023/08/26 12:05:24;;;;;;;3.77;1.40;;;24.50;99.90;;;;;;5059940;28;20470;-73
2023/08/26 12:07:51;;;;;;;1.67;1.23;;;24.50;99.90;;;;;;5028193;28;20921;-73
2023/08/26 12:10:18;;;;;;;2.40;1.50;;;24.40;99.90;;;;;;5010746;28;20823;-73
2023/08/26 12:12:45;;;;;;;1.60;1.50;;;24.40;99.90;;;;;;5027860;28;20461;-73
2023/08/26 12:15:18;;;;;;;3.30;1.77;;;24.40;99.90;;;;;;5058174;28;20473;-74
2023/08/26 12:17:48;;;;;;;1.43;1.40;;;24.40;99.90;;;;;;5058639;28;20532;-74
2023/08/26 12:20:21;;;;;;;1.40;1.30;;;24.50;99.90;;;;;;5028264;28;20477;-73
2023/08/26 12:22:51;;;;;;;3.30;1.57;;;24.60;99.90;;;;;;5042285;28;20461;-73
2023/08/26 12:25:39;;;;;;;1.77;1.67;;;24.70;99.90;;;;;;5029028;28;20474;-74
2023/08/26 12:28:12;;;;;;;1.90;1.47;;;24.80;99.90;;;;;;5027618;28;20476;-75
2023/08/26 12:30:43;;;;;;;1.67;1.40;;;25.00;99.90;;;;;;5040756;28;20461;-74
2023/08/26 12:33:09;;;;;;;1.87;1.30;;;25.00;99.90;;;;;;5026616;28;20481;-73
2023/08/26 12:35:36;;;;;;;2.10;1.50;;;24.90;99.90;;;;;;5026714;28;20473;-74
2023/08/26 12:38:02;;;;;;;1.50;1.40;;;24.90;99.90;;;;;;5041417;28;20500;-74
2023/08/26 12:40:32;;;;;;;1.40;1.30;;;25.10;99.90;;;;;;5008827;28;20500;-73
2023/08/26 12:42:59;;;;;;;1.73;1.33;;;25.30;99.90;;;;;;5027437;28;20477;-74
2023/08/26 12:45:25;;;;;;;1.40;1.30;;;25.50;99.90;;;;;;5026999;28;20477;-73